Time;durP1;ratioP1;P1;durP2;ratioP2;P2;SDS_P1;SDS_P2;PMS_P1;PMS_P2;Temp;Humidity;BMP_temperature;BMP_pressure;BME280_temperature;BME280_humidity;BME280_pressure;Samples;Min_cycle;Max_cycle;Signal;HPM_P1;HPM_P2
2021/12/05 00:16:59;;;;;;;19.23;6.70;;;;;;;2.77;91.00;99709.63;5052610;28;20434;-60
2021/12/05 00:19:12;;;;;;;18.63;6.93;;;;;;;2.67;90.68;99706.13;5052585;28;20067;-60
2021/12/05 00:21:44;;;;;;;20.23;6.50;;;;;;;2.63;91.04;99694.94;5052099;28;20045;-59
2021/12/05 00:24:19;;;;;;;19.30;6.40;;;;;;;2.67;91.03;99706.94;5055659;28;20116;-60
2021/12/05 00:26:55;;;;;;;16.75;5.88;;;;;;;2.68;90.71;99699.56;5056497;28;20025;-60
2021/12/05 00:29:36;;;;;;;18.25;6.43;;;;;;;2.73;90.66;99710.47;5055993;28;20021;-60
2021/12/05 00:34:56;;;;;;;18.75;7.05;;;;;;;2.67;90.33;99703.38;5055837;28;20033;-60
2021/12/05 00:45:47;;;;;;;21.97;6.73;;;;;;;2.67;89.99;99706.94;5055792;28;20036;-60
2021/12/05 00:56:23;;;;;;;18.95;6.97;;;;;;;2.51;91.28;99711.66;5055596;28;20044;-60
2021/12/05 01:01:40;;;;;;;18.00;6.25;;;;;;;2.40;91.44;99715.53;5054821;28;20065;-59
2021/12/05 01:09:34;;;;;;;21.45;7.60;;;;;;;2.26;91.71;99713.41;5055810;28;20041;-60
2021/12/05 01:14:49;;;;;;;21.45;7.53;;;;;;;2.29;91.44;99714.75;5055465;28;20029;-59
2021/12/05 01:17:18;;;;;;;20.35;7.03;;;;;;;2.31;91.25;99723.50;5055540;28;20025;-59
2021/12/05 01:19:44;;;;;;;20.75;6.65;;;;;;;2.24;91.69;99721.06;5054739;28;20075;-60
2021/12/05 01:22:12;;;;;;;22.20;7.32;;;;;;;2.17;91.97;99723.28;5055139;28;20064;-59
2021/12/05 01:24:53;;;;;;;18.40;6.45;;;;;;;2.13;92.46;99722.97;5055109;28;20021;-59
2021/12/05 01:38:10;;;;;;;21.70;7.85;;;;;;;1.86;92.41;99709.69;5053533;28;20040;-59
2021/12/05 01:52:27;;;;;;;19.70;6.80;;;;;;;1.63;93.36;99719.28;5054328;28;20040;-58
2021/12/05 01:55:15;;;;;;;23.27;7.20;;;;;;;1.60;94.04;99719.81;5053631;28;20116;-59
2021/12/05 02:00:47;;;;;;;21.35;6.75;;;;;;;1.49;94.75;99708.13;5054401;28;20275;-58
2021/12/05 02:41:08;;;;;;;20.63;7.00;;;;;;;1.38;96.21;99691.75;5053552;28;20053;-61
2021/12/05 02:43:37;;;;;;;21.05;7.03;;;;;;;1.39;95.58;99689.84;5053783;28;20032;-59
2021/12/05 02:46:05;;;;;;;24.02;7.80;;;;;;;1.38;95.89;99682.75;5052838;28;20033;-59
2021/12/05 02:48:34;;;;;;;23.80;7.78;;;;;;;1.37;96.20;99694.78;5053139;28;20021;-59
2021/12/05 02:51:02;;;;;;;22.85;6.97;;;;;;;1.46;95.38;99690.41;5052997;28;20024;-60
2021/12/05 02:53:40;;;;;;;20.40;7.00;;;;;;;1.43;96.26;99680.03;5053459;28;20024;-60
2021/12/05 02:56:06;;;;;;;20.80;6.55;;;;;;;1.43;96.26;99676.47;5052798;28;20413;-59
2021/12/05 02:58:49;;;;;;;22.38;6.72;;;;;;;1.46;96.10;99684.13;5053012;28;20396;-58
2021/12/05 03:01:38;;;;;;;21.17;6.95;;;;;;;1.42;96.42;99672.94;5053118;28;20053;-59
2021/12/05 03:04:06;;;;;;;19.88;6.38;;;;;;;1.49;95.70;99678.13;5053173;28;20491;-58
2021/12/05 03:06:33;;;;;;;20.92;7.05;;;;;;;1.44;95.75;99676.22;5053118;28;20021;-58
2021/12/05 03:09:05;;;;;;;23.00;6.40;;;;;;;1.42;96.64;99683.84;5053353;28;20041;-59
2021/12/05 03:11:31;;;;;;;24.20;7.05;;;;;;;1.37;96.45;99681.94;5052321;28;20029;-58
2021/12/05 03:13:57;;;;;;;22.73;7.18;;;;;;;1.45;96.43;99690.66;5052874;28;20079;-58
2021/12/05 03:16:25;;;;;;;20.40;6.88;;;;;;;1.46;96.29;99679.50;5052756;28;20040;-58
2021/12/05 03:18:50;;;;;;;18.88;6.05;;;;;;;1.60;95.98;99698.00;5052951;28;20538;-58
2021/12/05 03:21:16;;;;;;;21.75;6.63;;;;;;;1.66;96.35;99696.91;5052170;28;20044;-58
2021/12/05 03:23:44;;;;;;;23.92;6.97;;;;;;;1.64;95.90;99686.28;5052392;28;20021;-58
2021/12/05 03:26:12;;;;;;;19.73;6.82;;;;;;;1.73;96.20;99693.91;5052205;28;20035;-58
2021/12/05 03:28:38;;;;;;;20.02;6.70;;;;;;;1.74;95.86;99696.38;5052196;28;20036;-59
2021/12/05 03:31:04;;;;;;;19.77;7.22;;;;;;;1.77;96.05;99695.78;5052007;28;20025;-59
2021/12/05 03:33:30;;;;;;;27.38;7.38;;;;;;;1.85;95.39;99694.44;5052680;28;20029;-59
2021/12/05 03:35:56;;;;;;;18.13;6.47;;;;;;;1.85;95.54;99694.44;5052700;28;20021;-60
2021/12/05 03:38:21;;;;;;;18.90;6.68;;;;;;;1.87;95.31;99695.78;5052743;28;20057;-58
2021/12/05 03:40:47;;;;;;;19.50;8.27;;;;;;;1.86;95.46;99696.88;5052115;28;20049;-60
2021/12/05 03:43:16;;;;;;;20.25;7.28;;;;;;;1.87;95.38;99692.25;5052900;28;20321;-60
2021/12/05 03:45:46;;;;;;;20.05;7.25;;;;;;;1.85;96.11;99692.50;5052738;28;20052;-60
2021/12/05 03:48:13;;;;;;;20.45;6.82;;;;;;;1.80;95.75;99680.78;5052686;28;20112;-60
2021/12/05 03:50:39;;;;;;;21.23;6.90;;;;;;;1.84;95.32;99684.59;5052692;28;20056;-60
2021/12/05 03:53:06;;;;;;;21.05;7.05;;;;;;;1.84;95.60;99693.59;5052756;28;20025;-60
2021/12/05 03:55:33;;;;;;;23.13;7.75;;;;;;;1.87;96.21;99689.53;5052889;28;20075;-60
2021/12/05 03:57:58;;;;;;;21.55;8.02;;;;;;;1.89;95.36;99691.97;5055983;28;20468;-60
2021/12/05 04:00:33;;;;;;;20.48;7.97;;;;;;;1.87;96.07;99684.06;5056380;28;20028;-59
2021/12/05 04:03:01;;;;;;;21.80;7.40;;;;;;;1.79;95.68;99671.81;5056831;28;20025;-59
2021/12/05 04:05:28;;;;;;;20.00;7.22;;;;;;;1.93;95.73;99687.59;5056276;28;20036;-58
2021/12/05 04:07:54;;;;;;;22.02;7.78;;;;;;;1.92;95.54;99688.69;5056719;28;20061;-60
2021/12/05 04:10:20;;;;;;;19.20;7.32;;;;;;;1.91;95.92;99682.41;5056567;28;20104;-61
2021/12/05 04:12:46;;;;;;;21.45;7.50;;;;;;;1.94;95.50;99683.75;5056008;28;20052;-59
2021/12/05 04:15:12;;;;;;;18.27;7.05;;;;;;;1.97;95.19;99686.78;5055850;28;20429;-60
2021/12/05 04:17:40;;;;;;;19.67;7.30;;;;;;;1.99;95.59;99681.03;5056369;28;20029;-60
2021/12/05 04:20:07;;;;;;;17.67;7.05;;;;;;;2.08;95.21;99689.47;5056050;28;20468;-60
2021/12/05 04:22:33;;;;;;;20.95;7.72;;;;;;;2.12;95.11;99683.19;5056265;28;20043;-61
2021/12/05 04:25:01;;;;;;;21.05;7.25;;;;;;;2.13;95.21;99687.50;5055894;28;20112;-60
2021/12/05 04:27:27;;;;;;;19.27;7.97;;;;;;;2.16;95.10;99694.34;5056404;28;20025;-59
2021/12/05 04:29:53;;;;;;;17.23;6.80;;;;;;;2.21;95.36;99693.50;5056441;28;20059;-58
2021/12/05 04:32:18;;;;;;;17.73;7.15;;;;;;;2.25;95.48;99683.66;5057180;28;20040;-59
2021/12/05 04:34:43;;;;;;;20.48;7.20;;;;;;;2.24;95.51;99685.59;5056265;28;20029;-59
2021/12/05 04:37:09;;;;;;;19.75;7.28;;;;;;;2.28;94.95;99694.81;5056090;28;20032;-59
2021/12/05 04:39:37;;;;;;;23.25;7.63;;;;;;;2.27;94.81;99685.00;5055982;28;20071;-58
2021/12/05 04:42:03;;;;;;;20.52;7.30;;;;;;;2.27;95.02;99687.72;5055205;28;20055;-59
2021/12/05 04:44:28;;;;;;;18.77;7.35;;;;;;;2.30;94.59;99694.56;5056389;28;20101;-58
2021/12/05 04:46:54;;;;;;;21.02;7.40;;;;;;;2.32;94.78;99689.63;5056063;28;20570;-59
2021/12/05 04:49:20;;;;;;;21.38;7.57;;;;;;;2.32;94.70;99690.47;5056002;28;20139;-59
2021/12/05 04:51:46;;;;;;;19.23;7.05;;;;;;;2.38;95.08;99691.25;5054925;28;20380;-59
2021/12/05 04:54:14;;;;;;;20.27;7.60;;;;;;;2.31;94.08;99679.81;5056053;28;20480;-59
2021/12/05 04:56:40;;;;;;;19.83;7.13;;;;;;;2.38;94.39;99691.25;5055100;28;20025;-59
2021/12/05 04:59:13;;;;;;;19.23;7.68;;;;;;;2.31;94.23;99675.16;5055958;28;20052;-58
2021/12/05 05:01:39;;;;;;;16.30;6.75;;;;;;;2.40;94.22;99680.03;5055555;28;20353;-58
2021/12/05 05:04:11;;;;;;;18.05;8.10;;;;;;;2.42;94.19;99688.78;5055829;28;20112;-58
2021/12/05 05:06:36;;;;;;;16.98;7.03;;;;;;;2.46;94.12;99692.56;5055457;28;20029;-59
2021/12/05 05:09:03;;;;;;;18.02;7.43;;;;;;;2.45;94.77;99694.50;5054944;28;20039;-58
2021/12/05 05:11:28;;;;;;;19.70;7.25;;;;;;;2.46;94.30;99692.56;5055525;28;20055;-58
2021/12/05 05:13:53;;;;;;;20.30;7.90;;;;;;;2.47;94.35;99689.56;5055398;28;20480;-58
2021/12/05 05:16:21;;;;;;;16.85;7.65;;;;;;;2.50;93.78;99693.66;5055542;28;20024;-57
2021/12/05 05:18:57;;;;;;;20.13;7.10;;;;;;;2.50;93.85;99693.66;5055439;28;20449;-58
2021/12/05 05:21:41;;;;;;;18.23;7.10;;;;;;;2.52;94.08;99698.81;5055180;28;20048;-58
2021/12/05 05:24:25;;;;;;;17.52;7.07;;;;;;;2.51;94.48;99695.28;5055028;28;20040;-57
2021/12/05 05:43:28;;;;;;;15.95;6.82;;;;;;;2.49;94.77;99716.59;5054513;28;20055;-58
2021/12/05 05:50:57;;;;;;;17.83;7.10;;;;;;;2.49;94.47;99722.88;5054748;28;20127;-59
2021/12/05 05:53:22;;;;;;;17.42;7.13;;;;;;;2.50;94.76;99723.69;5054417;28;20025;-58
2021/12/05 05:55:49;;;;;;;18.35;7.80;;;;;;;2.47;94.97;99732.41;5054083;28;20388;-56
2021/12/05 05:58:15;;;;;;;17.17;7.20;;;;;;;2.45;94.97;99727.25;5054638;28;20016;-58
2021/12/05 06:03:38;;;;;;;13.10;6.53;;;;;;;2.48;94.61;99732.16;5034458;28;20374;-58
2021/12/05 06:06:05;;;;;;;16.17;6.70;;;;;;;2.47;94.69;99740.59;5054846;28;20033;-59
2021/12/05 06:08:33;;;;;;;15.52;6.60;;;;;;;2.44;94.42;99735.72;5054645;28;20056;-59
2021/12/05 06:11:02;;;;;;;15.48;6.10;;;;;;;2.47;94.06;99740.59;5054366;28;20423;-58
2021/12/05 06:13:31;;;;;;;15.40;6.38;;;;;;;2.41;94.31;99744.47;5054641;28;20431;-59
2021/12/05 06:15:57;;;;;;;15.57;5.90;;;;;;;2.41;93.98;99742.53;5053973;28;20025;-59
2021/12/05 06:18:22;;;;;;;14.45;5.80;;;;;;;2.44;93.91;99752.91;5054379;28;20025;-59
2021/12/05 06:20:49;;;;;;;12.88;5.85;;;;;;;2.40;94.23;99757.31;5052527;28;20032;-59
2021/12/05 06:23:15;;;;;;;10.73;5.50;;;;;;;2.40;93.64;99757.31;5053171;28;20076;-58
2021/12/05 06:25:44;;;;;;;13.93;5.93;;;;;;;2.28;93.40;99745.88;5053612;28;20103;-58
2021/12/05 06:28:14;;;;;;;13.27;5.40;;;;;;;2.30;93.78;99763.59;5054100;28;20025;-58
2021/12/05 06:46:37;;;;;;;10.50;5.32;;;;;;;2.18;94.23;99776.72;5053328;28;20028;-58
2021/12/05 06:49:03;;;;;;;11.23;5.60;;;;;;;2.15;94.35;99783.56;5053876;28;20029;-58
2021/12/05 06:51:30;;;;;;;12.60;5.63;;;;;;;2.13;94.62;99780.28;5052951;28;20428;-58
2021/12/05 06:53:56;;;;;;;12.40;5.60;;;;;;;2.17;95.23;99795.03;5052769;28;20021;-58
2021/12/05 06:56:22;;;;;;;13.35;5.60;;;;;;;2.17;94.55;99789.56;5053132;28;20053;-59
2021/12/05 06:58:48;;;;;;;14.57;6.28;;;;;;;2.14;94.87;99790.09;5052929;28;20071;-58
2021/12/05 07:01:15;;;;;;;14.98;6.03;;;;;;;2.16;94.93;99801.56;5053017;28;20051;-58
2021/12/05 07:03:44;;;;;;;15.25;6.40;;;;;;;2.16;95.31;99798.84;5051402;28;20104;-57
2021/12/05 07:06:12;;;;;;;15.85;6.60;;;;;;;2.15;95.72;99799.13;5052776;28;20021;-58
2021/12/05 07:08:40;;;;;;;13.63;6.50;;;;;;;2.19;94.67;99811.09;5053907;28;20028;-57
2021/12/05 07:11:49;;;;;;;15.70;6.53;;;;;;;2.14;94.98;99811.94;5052707;28;20119;-58
2021/12/05 07:16:41;;;;;;;15.43;6.80;;;;;;;2.14;95.39;99824.78;5053299;28;20028;-58
2021/12/05 07:24:30;;;;;;;14.27;7.00;;;;;;;2.11;96.03;99826.16;5052302;28;20040;-59
2021/12/05 07:40:23;;;;;;;17.17;7.30;;;;;;;2.24;96.18;99843.88;5053393;28;20052;-60
2021/12/05 07:43:05;;;;;;;17.58;7.18;;;;;;;2.23;95.75;99844.94;5053231;28;20051;-60
2021/12/05 07:45:39;;;;;;;16.83;7.55;;;;;;;2.25;96.07;99850.97;5051577;28;20027;-59
2021/12/05 07:48:11;;;;;;;17.15;7.65;;;;;;;2.25;95.94;99856.41;5053002;28;20040;-58
2021/12/05 07:50:50;;;;;;;16.02;7.07;;;;;;;2.27;96.47;99867.84;5053017;28;20067;-60
2021/12/05 07:53:23;;;;;;;17.23;7.75;;;;;;;2.29;96.37;99865.69;5052825;28;20036;-60
2021/12/05 07:55:52;;;;;;;;;;;;;;;2.34;96.49;99867.59;5053716;28;20031;-60
2021/12/05 07:58:47;;;;;;;15.55;7.35;;;;;;;2.32;96.47;99864.31;5050915;28;19955;-60
2021/12/05 08:15:07;;;;;;;16.90;7.45;;;;;;;2.41;95.87;99872.75;5052831;28;20392;-59
2021/12/05 08:17:32;;;;;;;17.55;7.82;;;;;;;2.42;96.20;99879.88;5053258;28;20025;-60
2021/12/05 08:19:57;;;;;;;20.23;8.63;;;;;;;2.42;95.91;99883.41;5052727;28;20540;-60
2021/12/05 08:22:24;;;;;;;18.50;7.88;;;;;;;2.43;96.48;99879.59;5052073;28;20452;-58
2021/12/05 08:24:51;;;;;;;17.98;7.97;;;;;;;2.43;95.83;99881.50;5051603;28;20515;-60
2021/12/05 08:27:16;;;;;;;19.25;8.00;;;;;;;2.45;95.74;99879.31;5052398;28;20113;-59
2021/12/05 08:29:50;;;;;;;18.40;8.07;;;;;;;2.47;95.82;99886.13;5052358;28;20100;-59
2021/12/05 08:34:58;;;;;;;19.20;7.85;;;;;;;2.49;95.64;99888.59;5052683;28;20037;-60
2021/12/05 08:38:01;;;;;;;18.63;8.32;;;;;;;2.50;96.41;99891.03;5052538;28;20477;-60
2021/12/05 09:21:19;;;;;;;21.70;10.20;;;;;;;2.83;95.71;99949.97;5055135;28;20059;-59
2021/12/05 09:40:15;;;;;;;19.23;8.38;;;;;;;2.84;95.56;99978.94;5050881;28;20052;-59
2021/12/05 09:51:11;;;;;;;19.38;7.45;;;;;;;2.85;95.48;99986.03;5051428;28;20446;-57
2021/12/05 09:51:14;;;;;;;18.48;7.40;;;;;;;2.83;95.14;99980.84;5052596;28;20045;-59
2021/12/05 09:51:44;;;;;;;17.83;7.32;;;;;;;2.84;95.41;99985.19;5053511;28;20043;-58
2021/12/05 10:10:38;;;;;;;17.60;7.35;;;;;;;2.98;95.46;100020.97;5050903;28;20492;-59
2021/12/05 10:38:06;;;;;;;19.75;8.10;;;;;;;3.23;96.00;100043.91;5029840;28;20041;-59
2021/12/05 10:40:46;;;;;;;18.83;7.40;;;;;;;3.22;95.76;100042.25;5036404;28;20052;-58
2021/12/05 10:43:18;;;;;;;19.25;8.05;;;;;;;3.24;95.42;100038.13;5051986;28;20197;-58
2021/12/05 10:45:50;;;;;;;18.90;8.20;;;;;;;3.28;94.96;100052.06;5051347;28;20029;-59
2021/12/05 10:48:25;;;;;;;19.55;8.10;;;;;;;3.25;95.77;100047.19;5051815;28;20122;-59
2021/12/05 10:51:03;;;;;;;18.73;8.52;;;;;;;3.31;95.53;100053.47;5051255;28;20389;-59
2021/12/05 10:53:40;;;;;;;18.77;8.27;;;;;;;3.31;94.94;100057.00;5051638;28;20068;-58
2021/12/05 10:56:26;;;;;;;18.83;7.90;;;;;;;3.34;94.80;100053.72;5051738;28;20108;-59
2021/12/05 10:58:58;;;;;;;20.35;8.90;;;;;;;3.29;95.36;100056.44;5051403;28;20040;-60
2021/12/05 11:01:35;;;;;;;18.85;9.13;;;;;;;3.30;95.00;100060.00;5051297;28;20032;-59
2021/12/05 11:04:25;;;;;;;19.83;9.02;;;;;;;3.21;95.64;100049.63;5051389;28;20059;-59
2021/12/05 11:06:52;;;;;;;18.90;8.27;;;;;;;3.24;95.05;100053.75;5050821;28;20074;-60
2021/12/05 11:09:22;;;;;;;19.23;8.27;;;;;;;3.25;94.78;100063.59;5052680;28;20035;-59
2021/12/05 11:11:57;;;;;;;18.83;8.32;;;;;;;3.23;94.72;100061.09;5051746;28;20506;-60
2021/12/05 11:14:28;;;;;;;19.58;8.23;;;;;;;3.20;94.86;100067.16;5052699;28;20025;-60
2021/12/05 11:16:58;;;;;;;20.73;8.77;;;;;;;3.19;94.91;100068.22;5051333;28;20119;-59
2021/12/05 11:19:34;;;;;;;19.30;8.10;;;;;;;3.20;94.38;100069.88;5050704;28;20039;-60
2021/12/05 11:22:10;;;;;;;19.25;7.57;;;;;;;3.24;94.23;100081.06;5050587;28;20418;-61
2021/12/05 11:24:40;;;;;;;17.70;7.85;;;;;;;3.21;94.35;100067.94;5050970;28;20025;-59
2021/12/05 11:27:25;;;;;;;18.63;8.43;;;;;;;3.19;93.80;100073.69;5050943;28;20114;-60
2021/12/05 11:30:10;;;;;;;19.55;8.25;;;;;;;3.24;93.63;100078.34;5051147;28;20368;-60
2021/12/05 11:32:50;;;;;;;20.83;8.50;;;;;;;3.25;94.24;100079.97;5050736;28;20025;-57
2021/12/05 11:35:22;;;;;;;18.88;8.93;;;;;;;3.24;93.48;100083.81;5050976;28;20047;-59
2021/12/05 11:38:04;;;;;;;18.00;8.35;;;;;;;3.26;93.73;100082.44;5050519;28;20029;-60
2021/12/05 11:40:56;;;;;;;18.95;8.30;;;;;;;3.34;94.05;100086.53;5048344;28;20040;-59
2021/12/05 11:43:24;;;;;;;18.90;8.40;;;;;;;3.32;93.09;100096.91;5047490;28;20399;-60
2021/12/05 11:46:14;;;;;;;18.55;8.18;;;;;;;3.35;92.82;100101.00;5050089;28;20641;-60
2021/12/05 11:48:47;;;;;;;19.55;8.30;;;;;;;3.38;93.27;100104.00;5050760;28;20037;-60
2021/12/05 11:51:29;;;;;;;17.15;7.50;;;;;;;3.41;93.49;100105.34;5050846;28;20037;-60
2021/12/05 11:54:14;;;;;;;15.60;6.65;;;;;;;3.43;93.16;100108.63;5050797;28;20021;-60
2021/12/05 11:57:02;;;;;;;14.98;6.28;;;;;;;3.47;92.16;100115.22;5050389;28;20041;-59
2021/12/05 11:59:38;;;;;;;13.13;6.00;;;;;;;3.44;91.23;100113.03;5050656;28;20033;-57
2021/12/05 12:02:29;;;;;;;14.02;5.97;;;;;;;3.49;92.01;100115.75;5050740;28;20109;-59
2021/12/05 12:05:23;;;;;;;13.93;6.35;;;;;;;3.52;91.58;100114.38;5050276;28;20044;-58
2021/12/05 12:08:07;;;;;;;14.60;6.20;;;;;;;3.55;91.29;100111.91;5044853;28;20049;-57
2021/12/05 12:10:50;;;;;;;13.55;6.32;;;;;;;3.55;91.13;100116.53;5050765;28;20036;-58
2021/12/05 12:13:19;;;;;;;12.63;6.20;;;;;;;3.54;91.33;100125.88;5051030;28;20107;-58
2021/12/05 12:15:47;;;;;;;14.18;6.40;;;;;;;3.49;90.84;100110.28;5050580;28;20029;-59
2021/12/05 12:18:25;;;;;;;13.60;6.40;;;;;;;3.55;91.42;100117.38;5051463;28;20069;-58
2021/12/05 12:20:52;;;;;;;13.45;6.28;;;;;;;3.57;91.23;100119.81;5055030;28;20033;-58
2021/12/05 12:23:19;;;;;;;13.00;6.15;;;;;;;3.55;91.36;100132.94;5054260;28;20507;-59
2021/12/05 12:25:51;;;;;;;13.63;6.50;;;;;;;3.45;90.99;100111.94;5053880;28;20028;-59
2021/12/05 12:28:17;;;;;;;15.45;7.53;;;;;;;3.53;91.67;100124.22;5053897;28;20490;-59
2021/12/05 12:30:45;;;;;;;12.70;6.25;;;;;;;3.46;91.71;100115.47;5055150;28;20032;-59
2021/12/05 12:33:20;;;;;;;13.88;6.47;;;;;;;3.51;91.43;100131.88;5055494;28;20380;-59
2021/12/05 12:35:47;;;;;;;15.70;6.78;;;;;;;3.50;91.40;100131.03;5055720;28;20103;-59
2021/12/05 12:38:17;;;;;;;11.75;5.90;;;;;;;3.46;91.93;100132.72;5054954;28;20029;-58
2021/12/05 12:40:47;;;;;;;13.13;6.22;;;;;;;3.52;91.76;100141.72;5052418;28;20130;-59
2021/12/05 12:43:35;;;;;;;11.77;5.97;;;;;;;3.56;91.84;100142.78;5052678;28;20029;-58
2021/12/05 12:46:32;;;;;;;13.07;6.30;;;;;;;3.56;92.16;100145.53;5050686;28;20556;-59
2021/12/05 12:49:25;;;;;;;13.30;6.30;;;;;;;3.62;92.10;100146.34;5054313;28;20056;-59
2021/12/05 12:51:52;;;;;;;12.60;6.10;;;;;;;3.63;91.61;100156.19;5053964;28;20029;-59
2021/12/05 12:54:49;;;;;;;11.68;6.10;;;;;;;3.66;92.00;100148.25;5054196;28;20057;-58
2021/12/05 12:57:20;;;;;;;15.63;6.60;;;;;;;3.69;91.39;100158.66;5053552;28;20059;-59
2021/12/05 13:00:00;;;;;;;16.63;7.22;;;;;;;3.72;91.17;100158.09;5054330;28;20040;-59
2021/12/05 13:02:57;;;;;;;15.73;6.60;;;;;;;3.74;91.21;100164.09;5054147;28;20029;-58
2021/12/05 13:11:06;;;;;;;12.90;5.90;;;;;;;3.81;90.71;100169.28;5054015;28;20086;-58
2021/12/05 13:13:36;;;;;;;12.85;5.65;;;;;;;3.83;90.24;100158.88;5054536;28;20029;-57
2021/12/05 13:16:20;;;;;;;12.55;6.07;;;;;;;3.94;90.62;100170.63;5054466;28;20078;-59
2021/12/05 13:18:48;;;;;;;11.80;6.10;;;;;;;3.91;89.76;100165.72;5054529;28;20116;-59
2021/12/05 13:21:35;;;;;;;18.92;8.60;;;;;;;4.02;90.49;100170.03;5053767;28;20491;-59
2021/12/05 13:24:23;;;;;;;12.50;5.90;;;;;;;3.99;89.72;100165.13;5053319;28;20033;-59
2021/12/05 13:26:49;;;;;;;12.70;6.40;;;;;;;4.09;89.96;100172.47;5053524;28;20045;-59
2021/12/05 13:29:23;;;;;;;12.05;6.07;;;;;;;4.16;89.18;100188.63;5052755;28;20029;-60
2021/12/05 13:32:13;;;;;;;13.43;6.10;;;;;;;4.12;88.99;100182.06;5052805;28;20533;-59
2021/12/05 13:34:41;;;;;;;13.75;6.50;;;;;;;4.11;88.74;100191.38;5053129;28;20094;-59
2021/12/05 13:37:06;;;;;;;12.70;6.18;;;;;;;4.08;88.65;100200.94;5053170;28;20039;-59
2021/12/05 13:39:44;;;;;;;15.40;6.77;;;;;;;4.06;88.91;100201.25;5051707;28;20111;-58
2021/12/05 13:42:42;;;;;;;12.13;6.10;;;;;;;4.00;89.35;100193.31;5050859;28;20339;-59
2021/12/05 13:45:30;;;;;;;13.98;6.65;;;;;;;4.00;88.48;100204.25;5053201;28;20111;-58
2021/12/05 13:47:56;;;;;;;13.93;6.72;;;;;;;4.03;88.20;100209.19;5052303;28;20484;-59
2021/12/05 13:50:26;;;;;;;16.52;7.78;;;;;;;4.00;87.71;100205.09;5051233;28;20033;-59
2021/12/05 13:53:02;;;;;;;18.20;7.60;;;;;;;4.00;88.12;100215.22;5052687;28;20079;-59
2021/12/05 13:55:44;;;;;;;15.35;6.80;;;;;;;3.94;87.63;100199.91;5052816;28;20037;-59
2021/12/05 13:58:32;;;;;;;14.85;6.88;;;;;;;3.93;88.24;100210.03;5052545;28;20056;-59
2021/12/05 14:01:04;;;;;;;14.25;6.75;;;;;;;3.98;88.04;100222.88;5052598;28;20033;-59
2021/12/05 14:03:47;;;;;;;12.40;6.32;;;;;;;3.97;88.28;100224.81;5052613;28;20472;-59
2021/12/05 14:07:04;;;;;;;14.07;6.43;;;;;;;3.99;89.24;100230.00;5052527;28;20036;-60
2021/12/05 14:09:37;;;;;;;14.80;6.85;;;;;;;3.95;88.50;100227.00;5040023;28;20044;-59
2021/12/05 14:12:24;;;;;;;13.27;6.32;;;;;;;3.93;88.85;100215.50;5052582;28;20037;-59
2021/12/05 14:14:55;;;;;;;13.85;6.43;;;;;;;4.02;88.47;100240.41;5052202;28;20048;-58
2021/12/05 14:17:28;;;;;;;13.13;6.18;;;;;;;4.00;88.42;100246.16;5051873;28;20025;-59
2021/12/05 14:20:14;;;;;;;13.50;6.77;;;;;;;4.01;88.27;100247.81;5052112;28;20040;-58
2021/12/05 14:22:43;;;;;;;11.65;6.25;;;;;;;3.97;87.36;100243.97;5052308;28;20294;-60
2021/12/05 14:25:15;;;;;;;11.45;5.90;;;;;;;3.96;87.64;100247.78;5052287;28;20021;-58
2021/12/05 14:27:48;;;;;;;11.93;6.30;;;;;;;4.05;87.12;100261.75;5052409;28;20032;-59
2021/12/05 14:30:19;;;;;;;14.98;6.60;;;;;;;4.00;86.48;100264.47;5051961;28;20484;-60
2021/12/05 14:32:46;;;;;;;16.52;7.95;;;;;;;4.02;85.57;100275.97;5053106;28;20044;-61
2021/12/05 14:35:35;;;;;;;12.98;6.53;;;;;;;4.01;85.85;100291.59;5051432;28;20064;-58
2021/12/05 14:38:02;;;;;;;13.90;6.90;;;;;;;3.94;84.72;100292.97;5052142;28;20021;-58
2021/12/05 14:40:30;;;;;;;19.15;9.45;;;;;;;3.85;85.40;100287.22;5050050;28;20052;-60
2021/12/05 14:43:05;;;;;;;33.60;19.98;;;;;;;3.81;85.50;100288.88;5050965;28;20040;-60
2021/12/05 14:45:37;;;;;;;16.33;7.45;;;;;;;3.82;85.45;100296.78;5051441;28;20111;-60
2021/12/05 14:48:07;;;;;;;15.27;7.35;;;;;;;3.81;85.58;100302.56;5051587;28;20476;-60
2021/12/05 14:50:35;;;;;;;14.57;7.25;;;;;;;3.79;85.69;100312.94;5051772;28;20039;-60
2021/12/05 14:53:06;;;;;;;15.50;7.18;;;;;;;3.78;85.59;100322.25;5051620;28;20029;-59
2021/12/05 14:55:34;;;;;;;17.58;8.23;;;;;;;3.74;85.25;100328.25;5051617;28;20025;-59
2021/12/05 14:58:05;;;;;;;17.23;8.45;;;;;;;3.73;85.21;100336.75;5051675;28;20033;-60
2021/12/05 15:00:41;;;;;;;18.00;8.85;;;;;;;3.73;85.92;100337.56;5051388;28;20021;-57
2021/12/05 15:03:13;;;;;;;17.95;9.07;;;;;;;3.73;86.91;100339.47;5051330;28;20503;-60
2021/12/05 15:05:39;;;;;;;19.90;9.27;;;;;;;3.74;86.76;100344.66;5051244;28;20082;-58
2021/12/05 15:08:16;;;;;;;17.75;9.07;;;;;;;3.73;86.28;100339.47;5051467;28;20037;-58
2021/12/05 15:10:44;;;;;;;20.52;9.77;;;;;;;3.73;85.66;100353.16;5051215;28;20024;-57
2021/12/05 15:13:11;;;;;;;20.05;9.38;;;;;;;3.68;86.51;100353.16;5051069;28;20036;-60
2021/12/05 15:15:38;;;;;;;19.38;9.00;;;;;;;3.68;86.34;100364.09;5050750;28;20029;-57
2021/12/05 15:18:05;;;;;;;17.67;8.75;;;;;;;3.65;85.97;100370.91;5051304;28;20494;-58
2021/12/05 15:20:35;;;;;;;16.85;8.05;;;;;;;3.63;86.53;100369.56;5051125;28;20040;-60
2021/12/05 15:23:04;;;;;;;16.42;7.97;;;;;;;3.64;86.61;100371.19;5050700;28;20586;-60
2021/12/05 15:25:31;;;;;;;15.23;7.47;;;;;;;3.65;86.94;100381.88;5051218;28;20029;-59
2021/12/05 15:27:58;;;;;;;15.93;7.80;;;;;;;3.60;87.77;100381.88;5051047;28;20032;-58
2021/12/05 15:30:27;;;;;;;15.70;7.90;;;;;;;3.57;87.90;100380.50;5050867;28;20040;-59
2021/12/05 15:32:57;;;;;;;17.02;8.30;;;;;;;3.61;87.69;100408.13;5051002;28;20064;-59
2021/12/05 15:35:24;;;;;;;17.55;8.23;;;;;;;3.63;87.83;100405.13;5050936;28;20032;-59
2021/12/05 15:37:59;;;;;;;19.75;9.77;;;;;;;3.63;88.14;100407.84;5050828;28;20098;-59
2021/12/05 15:40:26;;;;;;;16.23;8.30;;;;;;;3.64;88.09;100418.50;5047745;28;20056;-57
2021/12/05 15:43:01;;;;;;;16.58;8.75;;;;;;;3.64;88.62;100428.66;5050881;28;20029;-59
2021/12/05 15:45:27;;;;;;;16.83;9.00;;;;;;;3.65;88.86;100430.28;5050921;28;20032;-58
2021/12/05 15:47:52;;;;;;;18.90;8.93;;;;;;;3.64;88.34;100431.38;5050877;28;20384;-58
2021/12/05 15:50:21;;;;;;;18.02;8.88;;;;;;;3.57;88.44;100423.44;5050468;28;20056;-59
2021/12/05 15:52:59;;;;;;;18.17;8.75;;;;;;;3.62;89.01;100448.06;5049678;28;20071;-58
2021/12/05 15:55:35;;;;;;;18.60;8.50;;;;;;;3.61;88.60;100442.84;5050868;28;20024;-59
2021/12/05 15:58:03;;;;;;;19.52;9.45;;;;;;;3.57;88.11;100443.41;5050954;28;20043;-60
2021/12/05 16:00:34;;;;;;;19.42;10.90;;;;;;;3.53;89.18;100434.09;5050809;28;20399;-59
2021/12/05 16:03:01;;;;;;;18.95;9.55;;;;;;;3.57;88.80;100450.78;5050854;28;20025;-59
2021/12/05 16:05:27;;;;;;;19.50;10.68;;;;;;;3.57;89.08;100462.56;5050627;28;20032;-63
2021/12/05 16:08:01;;;;;;;20.75;10.55;;;;;;;3.58;89.02;100457.91;5051300;28;20037;-59
2021/12/05 16:10:26;;;;;;;21.08;11.60;;;;;;;3.60;89.47;100463.94;5050960;28;20069;-59
2021/12/05 16:12:53;;;;;;;21.08;11.85;;;;;;;3.56;89.13;100460.06;5050458;28;20067;-60
2021/12/05 16:15:24;;;;;;;17.77;7.97;;;;;;;3.53;88.78;100464.19;5050730;28;20032;-59
2021/12/05 16:17:58;;;;;;;19.38;9.07;;;;;;;3.59;88.76;100474.03;5050522;28;20086;-58
2021/12/05 16:20:40;;;;;;;17.67;8.00;;;;;;;3.58;88.92;100477.03;5050593;28;20048;-58
2021/12/05 16:23:12;;;;;;;19.20;8.75;;;;;;;3.54;88.66;100487.72;5050588;28;20140;-59
2021/12/05 16:25:42;;;;;;;19.23;8.68;;;;;;;3.48;89.05;100485.22;5050322;28;20484;-60
2021/12/05 16:28:12;;;;;;;19.58;9.70;;;;;;;3.52;89.65;100498.09;5050395;28;20032;-58
2021/12/05 16:30:41;;;;;;;17.80;8.23;;;;;;;3.47;89.00;100494.50;5050497;28;20072;-58
2021/12/05 16:33:08;;;;;;;18.35;8.82;;;;;;;3.53;89.61;100507.13;5050366;28;20027;-58
2021/12/05 16:35:48;;;;;;;18.65;8.65;;;;;;;3.52;90.13;100505.47;5050357;28;20100;-59
2021/12/05 16:38:24;;;;;;;17.95;7.63;;;;;;;3.49;89.43;100514.22;5050429;28;20025;-58
2021/12/05 16:41:08;;;;;;;19.45;8.77;;;;;;;3.32;89.58;100496.09;5048180;28;20084;-59
2021/12/05 16:43:37;;;;;;;18.33;8.00;;;;;;;3.34;89.39;100501.28;5050423;28;20025;-59
2021/12/05 16:46:11;;;;;;;18.55;8.32;;;;;;;3.35;89.73;100513.88;5050371;28;20033;-59
2021/12/05 16:48:38;;;;;;;20.38;10.38;;;;;;;3.34;89.66;100513.06;5050275;28;20465;-62